sensor_id;sensor_type;location;lat;lon;timestamp;temperature;humidity
6662;DHT22;3367;48.714;8.994;2023-03-23T00:02:22;11.90;1.00
6662;DHT22;3367;48.714;8.994;2023-03-23T00:04:49;12.00;1.00
6662;DHT22;3367;48.714;8.994;2023-03-23T00:07:16;11.90;1.00
6662;DHT22;3367;48.714;8.994;2023-03-23T00:09:47;11.90;1.00
6662;DHT22;3367;48.714;8.994;2023-03-23T00:12:20;12.10;1.00
6662;DHT22;3367;48.714;8.994;2023-03-23T00:14:58;11.90;1.00
6662;DHT22;3367;48.714;8.994;2023-03-23T00:17:26;11.90;1.00
6662;DHT22;3367;48.714;8.994;2023-03-23T00:19:53;12.00;1.00
6662;DHT22;3367;48.714;8.994;2023-03-23T00:22:19;12.00;1.00
6662;DHT22;3367;48.714;8.994;2023-03-23T00:24:48;12.00;1.00
6662;DHT22;3367;48.714;8.994;2023-03-23T00:27:16;12.00;1.00
6662;DHT22;3367;48.714;8.994;2023-03-23T00:29:44;11.90;1.00
6662;DHT22;3367;48.714;8.994;2023-03-23T00:32:13;12.00;1.00
6662;DHT22;3367;48.714;8.994;2023-03-23T00:34:42;12.00;1.00
6662;DHT22;3367;48.714;8.994;2023-03-23T00:37:11;12.00;1.00
6662;DHT22;3367;48.714;8.994;2023-03-23T00:39:38;11.90;1.00
6662;DHT22;3367;48.714;8.994;2023-03-23T00:42:12;12.00;1.00
6662;DHT22;3367;48.714;8.994;2023-03-23T00:44:39;11.90;1.00
6662;DHT22;3367;48.714;8.994;2023-03-23T00:47:07;11.90;1.00
6662;DHT22;3367;48.714;8.994;2023-03-23T00:49:36;11.80;1.00
6662;DHT22;3367;48.714;8.994;2023-03-23T00:52:04;11.80;1.00
6662;DHT22;3367;48.714;8.994;2023-03-23T00:54:32;11.80;1.00
6662;DHT22;3367;48.714;8.994;2023-03-23T00:56:59;11.80;1.00
6662;DHT22;3367;48.714;8.994;2023-03-23T00:59:26;11.80;1.00
6662;DHT22;3367;48.714;8.994;2023-03-23T01:01:53;11.80;1.00
6662;DHT22;3367;48.714;8.994;2023-03-23T01:04:21;11.80;1.00
6662;DHT22;3367;48.714;8.994;2023-03-23T01:06:49;11.80;1.00
6662;DHT22;3367;48.714;8.994;2023-03-23T01:09:18;11.80;1.00
6662;DHT22;3367;48.714;8.994;2023-03-23T01:11:47;11.80;1.00
6662;DHT22;3367;48.714;8.994;2023-03-23T01:14:16;11.90;1.00
6662;DHT22;3367;48.714;8.994;2023-03-23T01:16:43;12.00;1.00
6662;DHT22;3367;48.714;8.994;2023-03-23T01:19:10;11.90;1.00
6662;DHT22;3367;48.714;8.994;2023-03-23T01:21:39;11.90;1.00
6662;DHT22;3367;48.714;8.994;2023-03-23T01:24:06;11.90;1.00
6662;DHT22;3367;48.714;8.994;2023-03-23T01:26:33;11.90;1.00
6662;DHT22;3367;48.714;8.994;2023-03-23T01:29:00;12.00;1.00
6662;DHT22;3367;48.714;8.994;2023-03-23T01:31:27;12.10;1.00
6662;DHT22;3367;48.714;8.994;2023-03-23T01:33:54;12.00;1.00
6662;DHT22;3367;48.714;8.994;2023-03-23T01:36:23;12.00;1.00
6662;DHT22;3367;48.714;8.994;2023-03-23T01:38:52;12.00;1.00
6662;DHT22;3367;48.714;8.994;2023-03-23T01:41:20;12.00;1.00
6662;DHT22;3367;48.714;8.994;2023-03-23T01:43:55;12.00;1.00
6662;DHT22;3367;48.714;8.994;2023-03-23T01:46:23;11.90;1.00
6662;DHT22;3367;48.714;8.994;2023-03-23T01:48:50;11.90;1.00
6662;DHT22;3367;48.714;8.994;2023-03-23T01:51:19;11.90;1.00
6662;DHT22;3367;48.714;8.994;2023-03-23T01:53:51;11.90;1.00
6662;DHT22;3367;48.714;8.994;2023-03-23T01:56:26;11.80;1.00
6662;DHT22;3367;48.714;8.994;2023-03-23T01:58:55;11.80;1.00
6662;DHT22;3367;48.714;8.994;2023-03-23T02:01:23;11.80;1.00
6662;DHT22;3367;48.714;8.994;2023-03-23T02:03:52;11.80;1.00
6662;DHT22;3367;48.714;8.994;2023-03-23T02:06:21;11.70;1.00
6662;DHT22;3367;48.714;8.994;2023-03-23T02:08:49;11.70;1.00
6662;DHT22;3367;48.714;8.994;2023-03-23T02:11:18;11.70;1.00
6662;DHT22;3367;48.714;8.994;2023-03-23T02:13:47;11.70;1.00
6662;DHT22;3367;48.714;8.994;2023-03-23T02:16:20;11.60;1.00
6662;DHT22;3367;48.714;8.994;2023-03-23T02:18:57;11.60;1.00
6662;DHT22;3367;48.714;8.994;2023-03-23T02:21:52;11.60;1.00
6662;DHT22;3367;48.714;8.994;2023-03-23T02:24:52;11.60;1.00
6662;DHT22;3367;48.714;8.994;2023-03-23T02:27:36;11.60;1.00
6662;DHT22;3367;48.714;8.994;2023-03-23T02:30:19;11.50;1.00
6662;DHT22;3367;48.714;8.994;2023-03-23T02:35:53;11.50;1.00
6662;DHT22;3367;48.714;8.994;2023-03-23T02:38:23;11.50;1.00
6662;DHT22;3367;48.714;8.994;2023-03-23T02:40:54;11.40;1.00
6662;DHT22;3367;48.714;8.994;2023-03-23T02:43:24;11.30;1.00
6662;DHT22;3367;48.714;8.994;2023-03-23T02:45:52;11.20;1.00
6662;DHT22;3367;48.714;8.994;2023-03-23T02:48:22;11.10;1.00
6662;DHT22;3367;48.714;8.994;2023-03-23T02:50:53;11.10;1.00
6662;DHT22;3367;48.714;8.994;2023-03-23T02:53:22;11.10;1.00
6662;DHT22;3367;48.714;8.994;2023-03-23T02:55:51;11.10;1.00
6662;DHT22;3367;48.714;8.994;2023-03-23T02:58:19;11.00;1.00
6662;DHT22;3367;48.714;8.994;2023-03-23T03:00:48;11.00;1.00
6662;DHT22;3367;48.714;8.994;2023-03-23T03:03:17;10.90;1.00
6662;DHT22;3367;48.714;8.994;2023-03-23T03:05:55;11.00;1.00
6662;DHT22;3367;48.714;8.994;2023-03-23T03:08:30;11.00;1.00
6662;DHT22;3367;48.714;8.994;2023-03-23T03:11:03;11.10;1.00
6662;DHT22;3367;48.714;8.994;2023-03-23T03:13:37;11.10;1.00
6662;DHT22;3367;48.714;8.994;2023-03-23T03:16:09;11.20;1.00
6662;DHT22;3367;48.714;8.994;2023-03-23T03:25:27;11.20;1.00
6662;DHT22;3367;48.714;8.994;2023-03-23T03:27:55;11.20;1.00
6662;DHT22;3367;48.714;8.994;2023-03-23T03:30:26;11.10;1.00
6662;DHT22;3367;48.714;8.994;2023-03-23T03:32:56;11.00;1.00
6662;DHT22;3367;48.714;8.994;2023-03-23T03:35:26;11.00;1.00
6662;DHT22;3367;48.714;8.994;2023-03-23T03:37:53;11.00;1.00
6662;DHT22;3367;48.714;8.994;2023-03-23T03:40:21;10.90;1.00
6662;DHT22;3367;48.714;8.994;2023-03-23T03:42:49;10.90;1.00
6662;DHT22;3367;48.714;8.994;2023-03-23T03:45:18;10.90;1.00
6662;DHT22;3367;48.714;8.994;2023-03-23T03:47:45;10.90;1.00
6662;DHT22;3367;48.714;8.994;2023-03-23T03:50:12;10.90;1.00
6662;DHT22;3367;48.714;8.994;2023-03-23T03:52:39;10.80;1.00
6662;DHT22;3367;48.714;8.994;2023-03-23T03:55:07;10.90;1.00
6662;DHT22;3367;48.714;8.994;2023-03-23T03:57:34;10.80;1.00
6662;DHT22;3367;48.714;8.994;2023-03-23T04:00:03;10.80;1.00
6662;DHT22;3367;48.714;8.994;2023-03-23T04:02:39;10.80;1.00
6662;DHT22;3367;48.714;8.994;2023-03-23T04:05:07;10.80;1.00
6662;DHT22;3367;48.714;8.994;2023-03-23T04:07:34;10.80;1.00
6662;DHT22;3367;48.714;8.994;2023-03-23T04:10:03;10.80;1.00
6662;DHT22;3367;48.714;8.994;2023-03-23T04:12:29;10.90;1.00
6662;DHT22;3367;48.714;8.994;2023-03-23T04:14:56;11.00;1.00
6662;DHT22;3367;48.714;8.994;2023-03-23T04:17:24;11.00;1.00
6662;DHT22;3367;48.714;8.994;2023-03-23T04:19:51;11.10;1.00
6662;DHT22;3367;48.714;8.994;2023-03-23T04:22:18;11.10;1.00
6662;DHT22;3367;48.714;8.994;2023-03-23T04:24:45;11.20;1.00
6662;DHT22;3367;48.714;8.994;2023-03-23T04:27:12;11.10;1.00
6662;DHT22;3367;48.714;8.994;2023-03-23T04:29:39;11.10;1.00
6662;DHT22;3367;48.714;8.994;2023-03-23T04:32:06;11.20;1.00
6662;DHT22;3367;48.714;8.994;2023-03-23T04:34:34;11.20;1.00
6662;DHT22;3367;48.714;8.994;2023-03-23T04:37:01;11.20;1.00
6662;DHT22;3367;48.714;8.994;2023-03-23T04:39:28;11.20;1.00
6662;DHT22;3367;48.714;8.994;2023-03-23T04:41:58;11.40;1.00
6662;DHT22;3367;48.714;8.994;2023-03-23T04:44:26;11.50;1.00
6662;DHT22;3367;48.714;8.994;2023-03-23T04:46:53;11.60;1.00
6662;DHT22;3367;48.714;8.994;2023-03-23T04:49:20;11.60;1.00
6662;DHT22;3367;48.714;8.994;2023-03-23T04:51:48;11.60;1.00
6662;DHT22;3367;48.714;8.994;2023-03-23T04:54:16;11.60;1.00
6662;DHT22;3367;48.714;8.994;2023-03-23T04:56:42;11.60;1.00
6662;DHT22;3367;48.714;8.994;2023-03-23T04:59:09;11.60;1.00
6662;DHT22;3367;48.714;8.994;2023-03-23T05:01:38;11.60;1.00
6662;DHT22;3367;48.714;8.994;2023-03-23T05:04:05;11.60;1.00
6662;DHT22;3367;48.714;8.994;2023-03-23T05:06:32;11.60;1.00
6662;DHT22;3367;48.714;8.994;2023-03-23T05:09:00;11.70;1.00
6662;DHT22;3367;48.714;8.994;2023-03-23T05:11:27;11.70;1.00
6662;DHT22;3367;48.714;8.994;2023-03-23T05:13:53;11.70;1.00
6662;DHT22;3367;48.714;8.994;2023-03-23T05:16:20;11.70;1.00
6662;DHT22;3367;48.714;8.994;2023-03-23T05:18:47;11.70;1.00
6662;DHT22;3367;48.714;8.994;2023-03-23T05:21:13;11.70;1.00
6662;DHT22;3367;48.714;8.994;2023-03-23T05:23:41;11.70;1.00
6662;DHT22;3367;48.714;8.994;2023-03-23T05:26:09;11.70;1.00
6662;DHT22;3367;48.714;8.994;2023-03-23T05:28:35;11.60;1.00
6662;DHT22;3367;48.714;8.994;2023-03-23T05:31:02;11.60;1.00
6662;DHT22;3367;48.714;8.994;2023-03-23T05:33:30;11.70;1.00
6662;DHT22;3367;48.714;8.994;2023-03-23T05:35:56;11.60;1.00
6662;DHT22;3367;48.714;8.994;2023-03-23T05:38:23;11.70;1.00
6662;DHT22;3367;48.714;8.994;2023-03-23T05:40:50;11.80;1.00
6662;DHT22;3367;48.714;8.994;2023-03-23T05:43:19;11.80;1.00
6662;DHT22;3367;48.714;8.994;2023-03-23T05:45:46;11.90;1.00
6662;DHT22;3367;48.714;8.994;2023-03-23T05:48:13;11.90;1.00
6662;DHT22;3367;48.714;8.994;2023-03-23T05:50:40;11.90;1.00
6662;DHT22;3367;48.714;8.994;2023-03-23T05:53:06;12.00;1.00
6662;DHT22;3367;48.714;8.994;2023-03-23T05:55:33;12.00;1.00
6662;DHT22;3367;48.714;8.994;2023-03-23T05:58:00;12.10;1.00
6662;DHT22;3367;48.714;8.994;2023-03-23T06:00:28;12.10;1.00
6662;DHT22;3367;48.714;8.994;2023-03-23T06:02:56;12.10;1.00
6662;DHT22;3367;48.714;8.994;2023-03-23T06:05:23;12.10;1.00
6662;DHT22;3367;48.714;8.994;2023-03-23T06:07:51;12.10;1.00
6662;DHT22;3367;48.714;8.994;2023-03-23T06:10:18;12.20;1.00
6662;DHT22;3367;48.714;8.994;2023-03-23T06:12:45;12.20;1.00
6662;DHT22;3367;48.714;8.994;2023-03-23T06:15:12;12.30;1.00
6662;DHT22;3367;48.714;8.994;2023-03-23T06:17:41;12.20;1.00
6662;DHT22;3367;48.714;8.994;2023-03-23T06:20:08;12.20;1.00
6662;DHT22;3367;48.714;8.994;2023-03-23T06:22:36;12.20;1.00
6662;DHT22;3367;48.714;8.994;2023-03-23T06:25:03;12.20;1.00
6662;DHT22;3367;48.714;8.994;2023-03-23T06:27:30;12.20;1.00
6662;DHT22;3367;48.714;8.994;2023-03-23T06:29:57;12.30;1.00
6662;DHT22;3367;48.714;8.994;2023-03-23T06:32:25;12.30;1.00
6662;DHT22;3367;48.714;8.994;2023-03-23T06:34:53;12.30;1.00
6662;DHT22;3367;48.714;8.994;2023-03-23T06:37:20;12.30;1.00
6662;DHT22;3367;48.714;8.994;2023-03-23T06:39:47;12.30;1.00
6662;DHT22;3367;48.714;8.994;2023-03-23T06:42:13;12.30;1.00
6662;DHT22;3367;48.714;8.994;2023-03-23T06:44:40;12.30;1.00
6662;DHT22;3367;48.714;8.994;2023-03-23T06:47:07;12.40;1.00
6662;DHT22;3367;48.714;8.994;2023-03-23T06:49:34;12.50;1.00
6662;DHT22;3367;48.714;8.994;2023-03-23T06:52:02;12.70;1.00
6662;DHT22;3367;48.714;8.994;2023-03-23T06:54:29;12.80;1.00
6662;DHT22;3367;48.714;8.994;2023-03-23T06:56:56;13.00;1.00
6662;DHT22;3367;48.714;8.994;2023-03-23T06:59:22;13.10;1.00
6662;DHT22;3367;48.714;8.994;2023-03-23T07:01:49;13.20;1.00
6662;DHT22;3367;48.714;8.994;2023-03-23T07:04:16;13.20;1.00
6662;DHT22;3367;48.714;8.994;2023-03-23T07:06:43;13.20;1.00
6662;DHT22;3367;48.714;8.994;2023-03-23T07:09:11;13.20;1.00
6662;DHT22;3367;48.714;8.994;2023-03-23T07:11:37;13.20;1.00
6662;DHT22;3367;48.714;8.994;2023-03-23T07:14:04;13.20;1.00
6662;DHT22;3367;48.714;8.994;2023-03-23T07:16:31;13.20;1.00
6662;DHT22;3367;48.714;8.994;2023-03-23T07:18:58;13.20;1.00
6662;DHT22;3367;48.714;8.994;2023-03-23T07:21:25;13.10;1.00
6662;DHT22;3367;48.714;8.994;2023-03-23T07:23:52;13.10;1.00
6662;DHT22;3367;48.714;8.994;2023-03-23T07:26:20;13.10;1.00
6662;DHT22;3367;48.714;8.994;2023-03-23T07:28:47;13.00;1.00
6662;DHT22;3367;48.714;8.994;2023-03-23T07:31:13;13.10;1.00
6662;DHT22;3367;48.714;8.994;2023-03-23T07:33:40;13.10;1.00
6662;DHT22;3367;48.714;8.994;2023-03-23T07:36:08;13.10;1.00
6662;DHT22;3367;48.714;8.994;2023-03-23T07:38:35;13.20;1.00
6662;DHT22;3367;48.714;8.994;2023-03-23T07:41:02;13.20;1.00
6662;DHT22;3367;48.714;8.994;2023-03-23T07:43:30;13.30;1.00
6662;DHT22;3367;48.714;8.994;2023-03-23T07:45:57;13.40;1.00
6662;DHT22;3367;48.714;8.994;2023-03-23T07:48:24;13.60;1.00
6662;DHT22;3367;48.714;8.994;2023-03-23T07:50:50;13.80;1.00
6662;DHT22;3367;48.714;8.994;2023-03-23T07:53:17;14.10;1.00
6662;DHT22;3367;48.714;8.994;2023-03-23T07:55:44;14.30;1.00
6662;DHT22;3367;48.714;8.994;2023-03-23T07:58:10;14.40;1.00
6662;DHT22;3367;48.714;8.994;2023-03-23T08:00:45;14.50;1.00
6662;DHT22;3367;48.714;8.994;2023-03-23T08:03:14;14.50;1.00
6662;DHT22;3367;48.714;8.994;2023-03-23T08:05:41;14.50;1.00
6662;DHT22;3367;48.714;8.994;2023-03-23T08:08:08;14.50;1.00
6662;DHT22;3367;48.714;8.994;2023-03-23T08:10:35;14.40;1.00
6662;DHT22;3367;48.714;8.994;2023-03-23T08:13:03;14.40;1.00
6662;DHT22;3367;48.714;8.994;2023-03-23T08:15:31;14.30;1.00
6662;DHT22;3367;48.714;8.994;2023-03-23T08:18:04;14.30;1.00
6662;DHT22;3367;48.714;8.994;2023-03-23T08:20:31;14.40;1.00
6662;DHT22;3367;48.714;8.994;2023-03-23T08:22:58;14.60;1.00
6662;DHT22;3367;48.714;8.994;2023-03-23T08:25:25;14.70;1.00
6662;DHT22;3367;48.714;8.994;2023-03-23T08:27:52;14.70;1.00
6662;DHT22;3367;48.714;8.994;2023-03-23T08:30:20;14.80;1.00
6662;DHT22;3367;48.714;8.994;2023-03-23T08:32:48;14.80;1.00
6662;DHT22;3367;48.714;8.994;2023-03-23T08:35:18;14.80;1.00
6662;DHT22;3367;48.714;8.994;2023-03-23T08:37:45;14.70;1.00
6662;DHT22;3367;48.714;8.994;2023-03-23T08:40:17;14.70;1.00
6662;DHT22;3367;48.714;8.994;2023-03-23T08:42:45;14.60;1.00
6662;DHT22;3367;48.714;8.994;2023-03-23T08:45:17;14.70;1.00
6662;DHT22;3367;48.714;8.994;2023-03-23T08:47:44;14.80;1.00
6662;DHT22;3367;48.714;8.994;2023-03-23T08:50:16;14.80;1.00
6662;DHT22;3367;48.714;8.994;2023-03-23T08:52:45;14.80;1.00
6662;DHT22;3367;48.714;8.994;2023-03-23T08:55:12;14.80;1.00
6662;DHT22;3367;48.714;8.994;2023-03-23T08:57:40;14.80;1.00
6662;DHT22;3367;48.714;8.994;2023-03-23T09:00:13;14.90;1.00
6662;DHT22;3367;48.714;8.994;2023-03-23T09:02:42;15.00;1.00
6662;DHT22;3367;48.714;8.994;2023-03-23T09:05:10;15.10;1.00
6662;DHT22;3367;48.714;8.994;2023-03-23T09:07:38;15.30;1.00
6662;DHT22;3367;48.714;8.994;2023-03-23T09:10:08;15.30;1.00
6662;DHT22;3367;48.714;8.994;2023-03-23T09:12:36;15.30;1.00
6662;DHT22;3367;48.714;8.994;2023-03-23T09:15:03;15.20;1.00
6662;DHT22;3367;48.714;8.994;2023-03-23T09:17:34;15.30;1.00
6662;DHT22;3367;48.714;8.994;2023-03-23T09:20:00;15.40;1.00
6662;DHT22;3367;48.714;8.994;2023-03-23T09:22:29;15.50;1.00
6662;DHT22;3367;48.714;8.994;2023-03-23T09:24:56;15.60;1.00
6662;DHT22;3367;48.714;8.994;2023-03-23T09:27:24;15.50;1.00
6662;DHT22;3367;48.714;8.994;2023-03-23T09:29:51;15.30;1.00
6662;DHT22;3367;48.714;8.994;2023-03-23T09:32:18;15.20;1.00
6662;DHT22;3367;48.714;8.994;2023-03-23T09:34:45;15.20;1.00
6662;DHT22;3367;48.714;8.994;2023-03-23T09:37:12;15.20;1.00
6662;DHT22;3367;48.714;8.994;2023-03-23T09:39:39;15.20;1.00
6662;DHT22;3367;48.714;8.994;2023-03-23T09:42:19;15.20;1.00
6662;DHT22;3367;48.714;8.994;2023-03-23T09:45:01;15.10;1.00
6662;DHT22;3367;48.714;8.994;2023-03-23T09:47:34;15.10;1.00
6662;DHT22;3367;48.714;8.994;2023-03-23T09:50:10;15.20;1.00
6662;DHT22;3367;48.714;8.994;2023-03-23T09:52:40;15.40;1.00
6662;DHT22;3367;48.714;8.994;2023-03-23T09:55:11;15.50;1.00
6662;DHT22;3367;48.714;8.994;2023-03-23T09:57:43;15.60;1.00
6662;DHT22;3367;48.714;8.994;2023-03-23T10:00:17;15.90;1.00
6662;DHT22;3367;48.714;8.994;2023-03-23T10:02:49;16.30;1.00
6662;DHT22;3367;48.714;8.994;2023-03-23T10:05:30;16.60;1.00
6662;DHT22;3367;48.714;8.994;2023-03-23T10:07:57;16.80;1.00
6662;DHT22;3367;48.714;8.994;2023-03-23T10:10:31;16.80;1.00
6662;DHT22;3367;48.714;8.994;2023-03-23T10:13:02;16.50;1.00
6662;DHT22;3367;48.714;8.994;2023-03-23T10:15:36;16.40;1.00
6662;DHT22;3367;48.714;8.994;2023-03-23T10:18:10;16.50;1.00
6662;DHT22;3367;48.714;8.994;2023-03-23T10:20:43;16.40;1.00
6662;DHT22;3367;48.714;8.994;2023-03-23T10:23:22;16.40;1.00
6662;DHT22;3367;48.714;8.994;2023-03-23T10:25:52;16.50;1.00
6662;DHT22;3367;48.714;8.994;2023-03-23T10:28:21;16.40;1.00
6662;DHT22;3367;48.714;8.994;2023-03-23T10:30:53;16.40;1.00
6662;DHT22;3367;48.714;8.994;2023-03-23T10:33:25;16.20;1.00
6662;DHT22;3367;48.714;8.994;2023-03-23T10:35:58;16.20;1.00
6662;DHT22;3367;48.714;8.994;2023-03-23T10:38:29;16.30;1.00
6662;DHT22;3367;48.714;8.994;2023-03-23T10:41:01;16.40;1.00
6662;DHT22;3367;48.714;8.994;2023-03-23T10:43:28;16.70;1.00
6662;DHT22;3367;48.714;8.994;2023-03-23T10:46:00;17.00;1.00
6662;DHT22;3367;48.714;8.994;2023-03-23T10:48:31;17.20;1.00
6662;DHT22;3367;48.714;8.994;2023-03-23T10:51:01;17.50;1.00
6662;DHT22;3367;48.714;8.994;2023-03-23T10:53:32;17.40;1.00
6662;DHT22;3367;48.714;8.994;2023-03-23T10:55:59;17.40;1.00
6662;DHT22;3367;48.714;8.994;2023-03-23T10:58:28;17.60;1.00
6662;DHT22;3367;48.714;8.994;2023-03-23T11:00:57;17.60;1.00
6662;DHT22;3367;48.714;8.994;2023-03-23T11:03:29;17.70;1.00
6662;DHT22;3367;48.714;8.994;2023-03-23T11:06:01;17.70;1.00
6662;DHT22;3367;48.714;8.994;2023-03-23T11:08:30;17.60;1.00
6662;DHT22;3367;48.714;8.994;2023-03-23T11:11:10;17.40;1.00
6662;DHT22;3367;48.714;8.994;2023-03-23T11:13:40;17.20;1.00
6662;DHT22;3367;48.714;8.994;2023-03-23T11:16:10;17.20;1.00
6662;DHT22;3367;48.714;8.994;2023-03-23T11:18:39;17.20;1.00
6662;DHT22;3367;48.714;8.994;2023-03-23T11:21:08;17.00;1.00
6662;DHT22;3367;48.714;8.994;2023-03-23T11:23:39;17.00;1.00
6662;DHT22;3367;48.714;8.994;2023-03-23T11:26:13;17.10;1.00
6662;DHT22;3367;48.714;8.994;2023-03-23T11:28:45;17.20;1.00
6662;DHT22;3367;48.714;8.994;2023-03-23T11:31:14;17.30;1.00
6662;DHT22;3367;48.714;8.994;2023-03-23T11:33:49;17.50;1.00
6662;DHT22;3367;48.714;8.994;2023-03-23T11:36:17;17.60;1.00
6662;DHT22;3367;48.714;8.994;2023-03-23T11:38:45;17.80;1.00
6662;DHT22;3367;48.714;8.994;2023-03-23T11:41:16;17.70;1.00
6662;DHT22;3367;48.714;8.994;2023-03-23T11:43:46;17.80;1.00
6662;DHT22;3367;48.714;8.994;2023-03-23T11:46:21;17.90;1.00
6662;DHT22;3367;48.714;8.994;2023-03-23T11:48:53;18.00;1.00
6662;DHT22;3367;48.714;8.994;2023-03-23T11:51:29;18.10;1.00
6662;DHT22;3367;48.714;8.994;2023-03-23T11:54:01;18.10;1.00
6662;DHT22;3367;48.714;8.994;2023-03-23T11:56:32;17.90;1.00
6662;DHT22;3367;48.714;8.994;2023-03-23T11:59:00;18.00;1.00
6662;DHT22;3367;48.714;8.994;2023-03-23T12:01:48;17.90;1.00
6662;DHT22;3367;48.714;8.994;2023-03-23T12:04:33;17.80;1.00
6662;DHT22;3367;48.714;8.994;2023-03-23T12:09:58;17.90;1.00
6662;DHT22;3367;48.714;8.994;2023-03-23T12:12:35;17.80;1.00
6662;DHT22;3367;48.714;8.994;2023-03-23T12:15:14;18.00;1.00
6662;DHT22;3367;48.714;8.994;2023-03-23T12:17:51;18.00;1.00
6662;DHT22;3367;48.714;8.994;2023-03-23T12:20:27;18.10;1.00
6662;DHT22;3367;48.714;8.994;2023-03-23T12:23:08;18.20;1.00
6662;DHT22;3367;48.714;8.994;2023-03-23T12:25:51;18.20;1.00
6662;DHT22;3367;48.714;8.994;2023-03-23T12:28:29;17.80;1.00
6662;DHT22;3367;48.714;8.994;2023-03-23T12:31:03;17.50;1.00
6662;DHT22;3367;48.714;8.994;2023-03-23T12:33:44;17.40;1.00
6662;DHT22;3367;48.714;8.994;2023-03-23T12:36:21;17.30;1.00
6662;DHT22;3367;48.714;8.994;2023-03-23T12:39:31;17.60;1.00
6662;DHT22;3367;48.714;8.994;2023-03-23T12:42:03;17.80;1.00
6662;DHT22;3367;48.714;8.994;2023-03-23T12:44:35;17.80;1.00
6662;DHT22;3367;48.714;8.994;2023-03-23T12:47:13;17.80;1.00
6662;DHT22;3367;48.714;8.994;2023-03-23T12:49:46;17.70;1.00
6662;DHT22;3367;48.714;8.994;2023-03-23T12:52:20;17.90;1.00
6662;DHT22;3367;48.714;8.994;2023-03-23T12:54:51;18.00;1.00
6662;DHT22;3367;48.714;8.994;2023-03-23T12:57:26;18.20;1.00
6662;DHT22;3367;48.714;8.994;2023-03-23T13:00:01;18.50;1.00
6662;DHT22;3367;48.714;8.994;2023-03-23T13:02:34;18.70;1.00
6662;DHT22;3367;48.714;8.994;2023-03-23T13:05:07;18.80;1.00
6662;DHT22;3367;48.714;8.994;2023-03-23T13:07:37;18.60;1.00
6662;DHT22;3367;48.714;8.994;2023-03-23T13:10:12;18.30;1.00
6662;DHT22;3367;48.714;8.994;2023-03-23T13:12:41;18.30;1.00
6662;DHT22;3367;48.714;8.994;2023-03-23T13:15:20;18.40;1.00
6662;DHT22;3367;48.714;8.994;2023-03-23T13:17:52;18.60;1.00
6662;DHT22;3367;48.714;8.994;2023-03-23T13:20:42;18.60;1.00
6662;DHT22;3367;48.714;8.994;2023-03-23T13:23:15;18.70;1.00
6662;DHT22;3367;48.714;8.994;2023-03-23T13:25:54;18.60;1.00
6662;DHT22;3367;48.714;8.994;2023-03-23T13:28:24;18.60;1.00
6662;DHT22;3367;48.714;8.994;2023-03-23T13:31:01;18.70;1.00
6662;DHT22;3367;48.714;8.994;2023-03-23T13:33:31;18.70;1.00
6662;DHT22;3367;48.714;8.994;2023-03-23T13:36:05;18.60;1.00
6662;DHT22;3367;48.714;8.994;2023-03-23T13:38:35;18.50;1.00
6662;DHT22;3367;48.714;8.994;2023-03-23T13:41:08;18.50;1.00
6662;DHT22;3367;48.714;8.994;2023-03-23T13:43:36;18.50;1.00
6662;DHT22;3367;48.714;8.994;2023-03-23T13:46:09;18.50;1.00
6662;DHT22;3367;48.714;8.994;2023-03-23T13:48:46;18.50;1.00
6662;DHT22;3367;48.714;8.994;2023-03-23T13:51:35;18.40;1.00
6662;DHT22;3367;48.714;8.994;2023-03-23T13:54:14;18.40;1.00
6662;DHT22;3367;48.714;8.994;2023-03-23T13:56:47;18.30;1.00
6662;DHT22;3367;48.714;8.994;2023-03-23T13:59:16;18.30;1.00
6662;DHT22;3367;48.714;8.994;2023-03-23T14:01:43;18.30;1.00
6662;DHT22;3367;48.714;8.994;2023-03-23T14:04:13;18.30;1.00
6662;DHT22;3367;48.714;8.994;2023-03-23T14:06:43;18.30;1.00
6662;DHT22;3367;48.714;8.994;2023-03-23T14:09:15;18.20;1.00
6662;DHT22;3367;48.714;8.994;2023-03-23T14:11:48;18.10;1.00
6662;DHT22;3367;48.714;8.994;2023-03-23T14:14:22;18.10;1.00
6662;DHT22;3367;48.714;8.994;2023-03-23T14:16:51;18.00;1.00
6662;DHT22;3367;48.714;8.994;2023-03-23T14:19:21;17.80;1.00
6662;DHT22;3367;48.714;8.994;2023-03-23T14:21:54;17.80;1.00
6662;DHT22;3367;48.714;8.994;2023-03-23T14:24:23;17.70;1.00
6662;DHT22;3367;48.714;8.994;2023-03-23T14:26:52;17.70;1.00
6662;DHT22;3367;48.714;8.994;2023-03-23T14:29:20;17.70;1.00
6662;DHT22;3367;48.714;8.994;2023-03-23T14:31:54;17.60;1.00
6662;DHT22;3367;48.714;8.994;2023-03-23T14:34:23;17.60;1.00
6662;DHT22;3367;48.714;8.994;2023-03-23T14:36:53;17.60;1.00
6662;DHT22;3367;48.714;8.994;2023-03-23T14:39:24;17.60;1.00
6662;DHT22;3367;48.714;8.994;2023-03-23T14:41:53;17.60;1.00
6662;DHT22;3367;48.714;8.994;2023-03-23T14:44:23;17.60;1.00
6662;DHT22;3367;48.714;8.994;2023-03-23T14:46:50;17.60;1.00
6662;DHT22;3367;48.714;8.994;2023-03-23T14:49:21;17.70;1.00
6662;DHT22;3367;48.714;8.994;2023-03-23T14:51:53;17.80;1.00
6662;DHT22;3367;48.714;8.994;2023-03-23T14:54:25;17.60;1.00
6662;DHT22;3367;48.714;8.994;2023-03-23T14:56:53;17.70;1.00
6662;DHT22;3367;48.714;8.994;2023-03-23T14:59:20;17.70;1.00
6662;DHT22;3367;48.714;8.994;2023-03-23T15:01:49;17.60;1.00
6662;DHT22;3367;48.714;8.994;2023-03-23T15:04:19;17.60;1.00
6662;DHT22;3367;48.714;8.994;2023-03-23T15:06:49;17.70;1.00
6662;DHT22;3367;48.714;8.994;2023-03-23T15:09:20;17.70;1.00
6662;DHT22;3367;48.714;8.994;2023-03-23T15:11:53;17.60;1.00
6662;DHT22;3367;48.714;8.994;2023-03-23T15:14:23;17.60;1.00
6662;DHT22;3367;48.714;8.994;2023-03-23T15:16:52;17.60;1.00
6662;DHT22;3367;48.714;8.994;2023-03-23T15:19:22;17.50;1.00
6662;DHT22;3367;48.714;8.994;2023-03-23T15:21:52;17.40;1.00
6662;DHT22;3367;48.714;8.994;2023-03-23T15:24:32;17.30;1.00
6662;DHT22;3367;48.714;8.994;2023-03-23T15:27:11;17.30;1.00
6662;DHT22;3367;48.714;8.994;2023-03-23T15:29:47;17.20;1.00
6662;DHT22;3367;48.714;8.994;2023-03-23T15:32:23;17.20;1.00
6662;DHT22;3367;48.714;8.994;2023-03-23T15:34:51;17.20;1.00
6662;DHT22;3367;48.714;8.994;2023-03-23T15:37:22;17.10;1.00
6662;DHT22;3367;48.714;8.994;2023-03-23T15:40:16;17.00;1.00
6662;DHT22;3367;48.714;8.994;2023-03-23T15:42:43;16.80;1.00
6662;DHT22;3367;48.714;8.994;2023-03-23T15:45:25;16.80;1.00
6662;DHT22;3367;48.714;8.994;2023-03-23T15:47:52;16.70;1.00
6662;DHT22;3367;48.714;8.994;2023-03-23T15:50:32;16.60;1.00
6662;DHT22;3367;48.714;8.994;2023-03-23T15:53:00;16.60;1.00
6662;DHT22;3367;48.714;8.994;2023-03-23T15:55:34;16.60;1.00
6662;DHT22;3367;48.714;8.994;2023-03-23T15:58:10;16.60;1.00
6662;DHT22;3367;48.714;8.994;2023-03-23T16:00:38;16.50;1.00
6662;DHT22;3367;48.714;8.994;2023-03-23T16:03:07;16.50;1.00
6662;DHT22;3367;48.714;8.994;2023-03-23T16:05:36;16.40;1.00
6662;DHT22;3367;48.714;8.994;2023-03-23T16:08:03;16.30;1.00
6662;DHT22;3367;48.714;8.994;2023-03-23T16:10:32;16.20;1.00
6662;DHT22;3367;48.714;8.994;2023-03-23T16:12:58;16.10;1.00
6662;DHT22;3367;48.714;8.994;2023-03-23T16:15:25;16.10;1.00
6662;DHT22;3367;48.714;8.994;2023-03-23T16:17:52;16.00;1.00
6662;DHT22;3367;48.714;8.994;2023-03-23T16:20:21;16.00;1.00
6662;DHT22;3367;48.714;8.994;2023-03-23T16:22:49;16.00;1.00
6662;DHT22;3367;48.714;8.994;2023-03-23T16:25:16;16.00;1.00
6662;DHT22;3367;48.714;8.994;2023-03-23T16:27:45;15.90;1.00
6662;DHT22;3367;48.714;8.994;2023-03-23T16:30:17;15.90;1.00
6662;DHT22;3367;48.714;8.994;2023-03-23T16:32:44;15.80;1.00
6662;DHT22;3367;48.714;8.994;2023-03-23T16:35:12;15.80;1.00
6662;DHT22;3367;48.714;8.994;2023-03-23T16:37:43;15.80;1.00
6662;DHT22;3367;48.714;8.994;2023-03-23T16:40:12;15.70;1.00
6662;DHT22;3367;48.714;8.994;2023-03-23T16:42:39;15.70;1.00
6662;DHT22;3367;48.714;8.994;2023-03-23T16:45:08;15.60;1.00
6662;DHT22;3367;48.714;8.994;2023-03-23T16:47:35;15.50;1.00
6662;DHT22;3367;48.714;8.994;2023-03-23T16:50:03;15.50;1.00